Time;durP1;ratioP1;P1;durP2;ratioP2;P2;SDS_P1;SDS_P2;PMS_P1;PMS_P2;Temp;Humidity;BMP_temperature;BMP_pressure;BME280_temperature;BME280_humidity;BME280_pressure;Samples;Min_cycle;Max_cycle;Signal;HPM_P1;HPM_P2
2023/04/04 00:00:28;;;;;;;;;;;16.10;38.10;;;;;;5092965;28;19928;-73
2023/04/04 00:02:54;;;;;;;;;;;16.00;38.10;;;;;;5093544;28;20434;-74
2023/04/04 00:05:19;;;;;;;;;;;16.00;38.10;;;;;;5093447;28;19975;-73
2023/04/04 00:07:46;;;;;;;;;;;16.00;38.20;;;;;;5093472;28;19920;-73
2023/04/04 00:10:11;;;;;;;;;;;16.00;38.20;;;;;;5093344;28;19967;-73
2023/04/04 00:12:37;;;;;;;;;;;15.90;38.20;;;;;;5093111;28;19962;-73
2023/04/04 00:15:03;;;;;;;;;;;16.00;38.20;;;;;;5093221;28;19920;-73
2023/04/04 00:17:28;;;;;;;;;;;15.90;38.20;;;;;;5094218;28;20430;-73
2023/04/04 00:19:56;;;;;;;;;;;15.90;38.30;;;;;;5094196;28;20475;-73
2023/04/04 00:22:21;;;;;;;;;;;16.00;38.30;;;;;;5093141;28;19920;-73
2023/04/04 00:24:47;;;;;;;;;;;16.10;38.10;;;;;;5093079;28;20269;-73
2023/04/04 00:27:13;;;;;;;;;;;16.30;37.90;;;;;;5093009;28;19972;-73
2023/04/04 00:29:38;;;;;;;;;;;16.60;37.60;;;;;;5093034;28;20328;-73
2023/04/04 00:32:04;;;;;;;;;;;17.00;37.40;;;;;;5093805;28;20394;-73
2023/04/04 00:34:30;;;;;;;;;;;17.40;36.80;;;;;;5092890;28;19920;-72
2023/04/04 00:36:55;;;;;;;;;;;17.90;36.20;;;;;;5075899;28;19924;-72
2023/04/04 00:39:22;;;;;;;;;;;18.30;35.70;;;;;;5092543;28;20387;-72
2023/04/04 00:41:48;;;;;;;;;;;19.00;34.90;;;;;;5092340;28;19924;-72
2023/04/04 00:44:14;;;;;;;;;;;19.60;34.20;;;;;;5091938;28;20259;-72
2023/04/04 00:46:40;;;;;;;;;;;20.10;33.70;;;;;;5093490;28;19957;-72
2023/04/04 00:49:05;;;;;;;;;;;20.60;33.00;;;;;;5092696;28;20016;-73
2023/04/04 00:51:31;;;;;;;;;;;21.10;32.40;;;;;;5092538;28;19920;-72
2023/04/04 00:53:57;;;;;;;;;;;21.50;31.60;;;;;;5093591;28;19920;-72
2023/04/04 00:56:24;;;;;;;;;;;21.90;31.30;;;;;;5092508;28;19919;-72
2023/04/04 00:58:49;;;;;;;;;;;22.20;30.60;;;;;;5092058;28;19924;-72
2023/04/04 01:01:15;;;;;;;;;;;22.40;30.50;;;;;;5091726;28;19928;-72
2023/04/04 01:03:41;;;;;;;;;;;22.60;30.20;;;;;;5091961;28;20338;-72
2023/04/04 01:06:07;;;;;;;;;;;22.80;30.00;;;;;;5093307;28;20026;-72
2023/04/04 01:08:34;;;;;;;;;;;23.00;29.70;;;;;;5093578;28;19920;-72
2023/04/04 01:11:00;;;;;;;;;;;23.10;29.60;;;;;;5091906;28;19952;-73
2023/04/04 01:13:26;;;;;;;;;;;23.20;29.70;;;;;;5092166;28;19970;-72
2023/04/04 01:15:51;;;;;;;;;;;23.30;29.50;;;;;;5092133;28;19920;-72
2023/04/04 01:18:18;;;;;;;;;;;23.40;29.40;;;;;;5092913;28;19926;-72
2023/04/04 01:21:04;;;;;;;;;;;23.50;29.20;;;;;;5091859;28;19924;-72
2023/04/04 01:23:35;;;;;;;;;;;23.60;29.20;;;;;;5091431;28;19920;-72
2023/04/04 01:26:01;;;;;;;;;;;23.60;28.90;;;;;;5092044;28;20147;-72
2023/04/04 01:28:27;;;;;;;;;;;23.70;29.10;;;;;;5091841;28;19977;-72
2023/04/04 01:30:53;;;;;;;;;;;23.70;29.00;;;;;;5092815;28;20364;-72
2023/04/04 01:33:21;;;;;;;;;;;23.70;28.90;;;;;;5091849;28;19920;-72
2023/04/04 01:36:07;;;;;;;;;;;23.70;28.90;;;;;;5091798;28;20024;-72
2023/04/04 01:38:36;;;;;;;;;;;23.80;28.80;;;;;;5091242;28;20014;-72
2023/04/04 01:41:03;;;;;;;;;;;23.80;28.80;;;;;;5091457;28;19924;-72
2023/04/04 01:43:30;;;;;;;;;;;23.80;28.70;;;;;;5091317;28;19931;-73
2023/04/04 01:45:57;;;;;;;;;;;23.80;28.70;;;;;;5092857;28;19927;-72
2023/04/04 01:48:22;;;;;;;;;;;23.90;28.80;;;;;;5092794;28;19920;-72
2023/04/04 01:50:48;;;;;;;;;;;23.80;28.60;;;;;;5091338;28;19920;-72
2023/04/04 01:53:13;;;;;;;;;;;23.80;28.70;;;;;;5091609;28;19924;-72
2023/04/04 01:55:39;;;;;;;;;;;23.80;28.70;;;;;;5091109;28;20405;-72
2023/04/04 01:58:04;;;;;;;;;;;23.90;28.70;;;;;;5091389;28;19924;-72
2023/04/04 02:00:30;;;;;;;;;;;23.80;28.70;;;;;;5091070;28;20482;-72
2023/04/04 02:02:56;;;;;;;;;;;23.80;28.80;;;;;;5091234;28;20331;-72
2023/04/04 02:05:21;;;;;;;;;;;23.80;28.70;;;;;;5091429;28;20045;-72
2023/04/04 02:07:48;;;;;;;;;;;23.80;28.70;;;;;;5091404;28;19971;-73
2023/04/04 02:10:14;;;;;;;;;;;23.80;28.60;;;;;;5091324;28;19924;-72
2023/04/04 02:12:39;;;;;;;;;;;23.70;28.70;;;;;;5091090;28;19920;-72
2023/04/04 02:15:05;;;;;;;;;;;23.70;28.80;;;;;;5091301;28;19928;-72
2023/04/04 02:17:31;;;;;;;;;;;23.70;28.80;;;;;;5091154;28;19969;-72
2023/04/04 02:19:56;;;;;;;;;;;23.70;28.80;;;;;;5090906;28;19920;-72
2023/04/04 02:22:22;;;;;;;;;;;23.70;28.90;;;;;;5091317;28;20295;-72
2023/04/04 02:24:48;;;;;;;;;;;23.70;28.70;;;;;;5092217;28;19920;-72
2023/04/04 02:27:13;;;;;;;;;;;23.70;28.70;;;;;;5091000;28;19920;-72
2023/04/04 02:29:39;;;;;;;;;;;23.70;28.80;;;;;;5092053;28;19927;-72
2023/04/04 02:32:04;;;;;;;;;;;23.70;28.80;;;;;;5092409;28;19927;-71
2023/04/04 02:34:30;;;;;;;;;;;23.60;28.70;;;;;;5091117;28;19921;-71
2023/04/04 02:36:55;;;;;;;;;;;23.60;29.30;;;;;;5090804;28;19920;-71
2023/04/04 02:39:21;;;;;;;;;;;23.50;28.80;;;;;;5090903;28;19970;-72
2023/04/04 02:41:46;;;;;;;;;;;23.50;28.90;;;;;;5090703;28;19924;-72
2023/04/04 02:44:12;;;;;;;;;;;23.40;28.90;;;;;;5092035;28;19920;-71
2023/04/04 02:46:37;;;;;;;;;;;23.30;29.00;;;;;;5090962;28;20371;-73
2023/04/04 02:49:03;;;;;;;;;;;23.20;29.00;;;;;;5090788;28;19920;-72
2023/04/04 02:51:28;;;;;;;;;;;23.20;29.10;;;;;;5090960;28;19964;-72
2023/04/04 02:53:54;;;;;;;;;;;23.20;29.10;;;;;;5092015;28;19924;-71
2023/04/04 02:56:20;;;;;;;;;;;23.20;29.10;;;;;;5090674;28;19920;-71
2023/04/04 02:58:45;;;;;;;;;;;23.30;29.20;;;;;;5091916;28;19920;-70
2023/04/04 03:01:11;;;;;;;;;;;23.30;29.10;;;;;;5090245;28;19947;-71
2023/04/04 03:03:36;;;;;;;;;;;23.40;29.00;;;;;;5092161;28;19960;-71
2023/04/04 03:06:02;;;;;;;;;;;23.40;29.00;;;;;;5090527;28;19920;-70
2023/04/04 03:08:27;;;;;;;;;;;23.40;28.90;;;;;;5092870;28;19947;-71
2023/04/04 03:10:53;;;;;;;;;;;23.50;28.90;;;;;;5094432;28;19920;-71
2023/04/04 03:13:18;;;;;;;;;;;23.50;28.90;;;;;;5094240;28;19920;-71
2023/04/04 03:15:44;;;;;;;;;;;23.60;29.50;;;;;;5095319;28;19924;-72
2023/04/04 03:18:10;;;;;;;;;;;23.60;28.80;;;;;;5094211;28;20018;-71
2023/04/04 03:20:36;;;;;;;;;;;23.70;28.80;;;;;;5095419;28;19930;-72
2023/04/04 03:23:02;;;;;;;;;;;23.60;28.70;;;;;;5093821;28;20303;-72
2023/04/04 03:25:27;;;;;;;;;;;23.60;28.70;;;;;;5093977;28;20004;-71
2023/04/04 03:27:53;;;;;;;;;;;23.60;28.80;;;;;;5095265;28;19955;-71
2023/04/04 03:30:18;;;;;;;;;;;23.50;28.80;;;;;;5093895;28;20023;-71
2023/04/04 03:32:44;;;;;;;;;;;23.50;28.80;;;;;;5093663;28;19920;-71
2023/04/04 03:35:10;;;;;;;;;;;23.50;28.80;;;;;;5094095;28;19920;-72
2023/04/04 03:37:36;;;;;;;;;;;23.50;28.80;;;;;;5094083;28;19999;-71
2023/04/04 03:40:01;;;;;;;;;;;23.40;28.80;;;;;;5093646;28;19920;-71
2023/04/04 03:42:27;;;;;;;;;;;23.40;28.90;;;;;;5093534;28;19920;-72
2023/04/04 03:44:52;;;;;;;;;;;23.40;28.90;;;;;;5093953;28;19920;-72
2023/04/04 03:47:18;;;;;;;;;;;23.40;28.90;;;;;;5094668;28;19926;-71
2023/04/04 03:49:44;;;;;;;;;;;23.40;29.00;;;;;;5093555;28;20394;-72
2023/04/04 03:52:10;;;;;;;;;;;23.30;29.00;;;;;;5094699;28;19920;-72
2023/04/04 03:54:35;;;;;;;;;;;23.30;29.00;;;;;;5093402;28;19943;-71
2023/04/04 03:57:03;;;;;;;;;;;23.30;29.00;;;;;;5093274;28;19981;-71
2023/04/04 03:59:28;;;;;;;;;;;23.30;29.00;;;;;;5093032;28;19924;-71
2023/04/04 04:01:53;;;;;;;;;;;23.20;29.00;;;;;;5093278;28;19924;-71
2023/04/04 04:04:19;;;;;;;;;;;23.30;29.00;;;;;;5094389;28;20303;-71
2023/04/04 04:06:45;;;;;;;;;;;23.30;29.00;;;;;;5093515;28;19978;-71
2023/04/04 04:09:11;;;;;;;;;;;23.30;29.00;;;;;;5093087;28;20444;-72
2023/04/04 04:11:36;;;;;;;;;;;23.30;29.00;;;;;;5093353;28;19963;-71
2023/04/04 04:14:02;;;;;;;;;;;23.30;29.50;;;;;;5092996;28;19982;-71
2023/04/04 04:16:28;;;;;;;;;;;23.40;29.00;;;;;;5093309;28;19924;-71
2023/04/04 04:18:53;;;;;;;;;;;23.40;28.90;;;;;;5094010;28;19920;-72
2023/04/04 04:21:19;;;;;;;;;;;23.50;28.90;;;;;;5092826;28;19931;-72
2023/04/04 04:23:44;;;;;;;;;;;23.50;28.80;;;;;;5093064;28;20434;-71
2023/04/04 04:26:10;;;;;;;;;;;23.50;28.80;;;;;;5092781;28;19941;-71
2023/04/04 04:28:35;;;;;;;;;;;23.60;28.70;;;;;;5092683;28;19920;-72
2023/04/04 04:31:05;;;;;;;;;;;23.70;28.70;;;;;;5093958;28;19924;-72
2023/04/04 04:33:31;;;;;;;;;;;23.70;28.70;;;;;;5092875;28;20028;-72
2023/04/04 04:35:58;;;;;;;;;;;23.70;28.70;;;;;;5092923;28;20362;-71
2023/04/04 04:38:24;;;;;;;;;;;23.70;28.60;;;;;;5092572;28;20007;-71
2023/04/04 04:40:49;;;;;;;;;;;23.70;28.70;;;;;;5092570;28;19967;-72
2023/04/04 04:43:15;;;;;;;;;;;23.60;28.60;;;;;;5092484;28;19931;-72
2023/04/04 04:45:41;;;;;;;;;;;23.60;28.70;;;;;;5092720;28;19966;-72
2023/04/04 04:48:06;;;;;;;;;;;23.50;28.70;;;;;;5092598;28;20360;-71
2023/04/04 04:50:32;;;;;;;;;;;23.50;28.80;;;;;;5092251;28;20399;-72
2023/04/04 04:52:57;;;;;;;;;;;23.40;28.80;;;;;;5092269;28;19947;-72
2023/04/04 04:55:23;;;;;;;;;;;23.40;28.80;;;;;;5093406;28;19927;-72
2023/04/04 04:57:48;;;;;;;;;;;23.30;28.80;;;;;;5092106;28;19927;-70
2023/04/04 05:00:15;;;;;;;;;;;23.30;28.90;;;;;;5091961;28;19928;-72
2023/04/04 05:02:40;;;;;;;;;;;23.20;28.90;;;;;;5092104;28;20006;-71
2023/04/04 05:05:06;;;;;;;;;;;23.20;28.90;;;;;;5092227;28;19994;-71
2023/04/04 05:07:32;;;;;;;;;;;23.20;28.90;;;;;;5092045;28;19980;-72
2023/04/04 05:09:57;;;;;;;;;;;23.10;28.90;;;;;;5093315;28;19923;-71
2023/04/04 05:12:23;;;;;;;;;;;23.10;28.90;;;;;;5093487;28;19920;-71
2023/04/04 05:14:49;;;;;;;;;;;23.10;29.00;;;;;;5092083;28;19928;-71
2023/04/04 05:17:14;;;;;;;;;;;23.10;29.00;;;;;;5091903;28;20392;-72
2023/04/04 05:19:40;;;;;;;;;;;23.10;29.00;;;;;;5091997;28;19927;-72
2023/04/04 05:22:06;;;;;;;;;;;23.00;29.00;;;;;;5091674;28;19924;-72
2023/04/04 05:24:32;;;;;;;;;;;23.10;29.00;;;;;;5092010;28;19927;-71
2023/04/04 05:26:57;;;;;;;;;;;23.10;29.00;;;;;;5091898;28;19920;-71
2023/04/04 05:29:23;;;;;;;;;;;23.00;29.00;;;;;;5091987;28;20488;-72
2023/04/04 05:31:48;;;;;;;;;;;23.00;29.00;;;;;;5091157;28;20333;-72
2023/04/04 05:34:14;;;;;;;;;;;23.10;29.00;;;;;;5092840;28;19982;-71
2023/04/04 05:36:40;;;;;;;;;;;23.10;29.00;;;;;;5079307;28;20386;-71
2023/04/04 05:39:06;;;;;;;;;;;23.10;29.00;;;;;;5074139;28;19920;-67
2023/04/04 05:41:32;;;;;;;;;;;23.10;29.20;;;;;;5089494;28;19930;-67
2023/04/04 05:43:57;;;;;;;;;;;23.10;29.50;;;;;;5074635;28;20355;-66
2023/04/04 05:46:23;;;;;;;;;;;23.10;29.70;;;;;;5071989;28;19939;-66
2023/04/04 05:48:50;;;;;;;;;;;23.00;29.50;;;;;;5089622;28;20374;-67
2023/04/04 05:51:16;;;;;;;;;;;22.90;29.60;;;;;;5091059;28;20325;-66
2023/04/04 05:53:44;;;;;;;;;;;23.00;29.70;;;;;;5078906;28;19969;-67
2023/04/04 05:56:10;;;;;;;;;;;23.20;29.70;;;;;;5072657;28;19931;-65
2023/04/04 05:58:35;;;;;;;;;;;23.40;29.70;;;;;;5084414;28;20055;-65
2023/04/04 06:01:04;;;;;;;;;;;23.60;29.50;;;;;;5062258;28;20446;-66
2023/04/04 06:03:30;;;;;;;;;;;23.60;28.80;;;;;;5079624;28;20372;-66
2023/04/04 06:05:55;;;;;;;;;;;23.50;28.40;;;;;;5076157;28;19931;-65
2023/04/04 06:08:21;;;;;;;;;;;23.50;28.90;;;;;;5070313;28;20354;-66
2023/04/04 06:10:46;;;;;;;;;;;23.60;29.20;;;;;;5084589;28;20054;-65
2023/04/04 06:13:12;;;;;;;;;;;23.70;29.50;;;;;;5057599;28;19924;-65
2023/04/04 06:15:37;;;;;;;;;;;23.90;29.90;;;;;;5077149;28;19920;-65
2023/04/04 06:18:03;;;;;;;;;;;23.90;29.40;;;;;;5074998;28;19920;-65
2023/04/04 06:20:28;;;;;;;;;;;23.80;29.50;;;;;;5092137;28;20338;-65
2023/04/04 06:22:54;;;;;;;;;;;23.90;29.40;;;;;;5061527;28;20755;-64
2023/04/04 06:25:19;;;;;;;;;;;24.00;29.50;;;;;;5087996;28;19924;-65
2023/04/04 06:27:45;;;;;;;;;;;24.00;29.30;;;;;;5093077;28;20040;-65
2023/04/04 06:30:13;;;;;;;;;;;24.10;29.60;;;;;;5101945;28;19927;-65
2023/04/04 06:32:38;;;;;;;;;;;24.10;29.70;;;;;;5049092;28;19924;-64
2023/04/04 06:35:04;;;;;;;;;;;24.10;29.50;;;;;;5055235;28;19924;-65
2023/04/04 06:37:30;;;;;;;;;;;24.10;29.60;;;;;;5056017;28;20276;-65
2023/04/04 06:39:55;;;;;;;;;;;24.10;29.40;;;;;;5052358;28;19921;-65
2023/04/04 06:42:21;;;;;;;;;;;23.90;28.90;;;;;;5050951;28;19921;-66
2023/04/04 06:44:47;;;;;;;;;;;23.90;29.00;;;;;;5058385;28;19931;-65
2023/04/04 06:47:13;;;;;;;;;;;23.80;29.10;;;;;;5054092;28;19969;-65
2023/04/04 06:49:38;;;;;;;;;;;23.70;29.30;;;;;;5061278;28;19973;-65
2023/04/04 06:52:04;;;;;;;;;;;23.80;29.50;;;;;;5056175;28;19936;-65
2023/04/04 06:54:29;;;;;;;;;;;23.80;29.60;;;;;;5071229;28;19925;-67
2023/04/04 06:56:55;;;;;;;;;;;23.90;29.60;;;;;;5055606;28;19920;-66
2023/04/04 06:59:20;;;;;;;;;;;23.80;29.80;;;;;;5048686;28;19921;-67
2023/04/04 07:01:46;;;;;;;;;;;24.00;29.80;;;;;;5056877;28;19931;-65
2023/04/04 07:04:11;;;;;;;;;;;24.00;29.90;;;;;;5053709;28;19924;-68
2023/04/04 07:06:37;;;;;;;;;;;24.10;29.90;;;;;;5059144;28;19928;-67
2023/04/04 07:09:03;;;;;;;;;;;24.20;29.90;;;;;;5075238;28;19924;-65
2023/04/04 07:11:29;;;;;;;;;;;24.30;29.70;;;;;;5056268;28;20388;-66
2023/04/04 07:13:55;;;;;;;;;;;24.40;29.80;;;;;;5074667;28;19981;-67
2023/04/04 07:16:20;;;;;;;;;;;24.40;29.70;;;;;;5054426;28;19924;-66
2023/04/04 07:18:46;;;;;;;;;;;24.40;29.50;;;;;;5067193;28;19971;-67
2023/04/04 07:21:12;;;;;;;;;;;24.30;29.60;;;;;;5055383;28;19967;-67
2023/04/04 07:23:38;;;;;;;;;;;24.20;29.70;;;;;;5040179;28;19935;-68
2023/04/04 07:26:03;;;;;;;;;;;24.20;29.80;;;;;;5044487;28;19921;-67
2023/04/04 07:28:29;;;;;;;;;;;24.10;30.10;;;;;;5074974;28;20008;-68
2023/04/04 07:30:57;;;;;;;;;;;24.30;30.20;;;;;;5074882;28;19974;-68
2023/04/04 07:33:23;;;;;;;;;;;24.30;30.30;;;;;;5072770;28;20634;-72
2023/04/04 07:35:48;;;;;;;;;;;24.40;30.10;;;;;;5054554;28;19925;-70
2023/04/04 07:38:14;;;;;;;;;;;24.40;30.00;;;;;;5054232;28;20176;-73
2023/04/04 07:40:39;;;;;;;;;;;24.30;30.00;;;;;;5058183;28;19936;-70
2023/04/04 07:43:05;;;;;;;;;;;24.10;30.20;;;;;;5055957;28;19936;-68
2023/04/04 07:45:31;;;;;;;;;;;23.90;30.30;;;;;;5074685;28;19928;-70
2023/04/04 07:47:56;;;;;;;;;;;23.70;30.00;;;;;;5058012;28;19961;-72
2023/04/04 07:50:22;;;;;;;;;;;23.60;30.40;;;;;;5069970;28;19931;-71
2023/04/04 07:52:50;;;;;;;;;;;23.40;30.70;;;;;;5075295;28;19925;-70
2023/04/04 07:55:15;;;;;;;;;;;23.20;31.10;;;;;;5076265;28;19935;-71
2023/04/04 07:57:41;;;;;;;;;;;23.10;31.30;;;;;;5057153;28;20367;-70
2023/04/04 08:00:08;;;;;;;;;;;22.80;31.40;;;;;;5057400;28;19928;-68
2023/04/04 08:02:35;;;;;;;;;;;22.60;32.00;;;;;;5074789;28;20412;-70
2023/04/04 08:05:01;;;;;;;;;;;22.50;32.00;;;;;;5054116;28;19920;-70
2023/04/04 08:07:27;;;;;;;;;;;22.40;32.40;;;;;;5074210;28;19993;-69
2023/04/04 08:09:53;;;;;;;;;;;22.30;32.40;;;;;;5069895;28;20267;-70
2023/04/04 08:12:18;;;;;;;;;;;22.30;32.50;;;;;;5072520;28;20028;-70
2023/04/04 08:14:44;;;;;;;;;;;22.20;32.50;;;;;;5070502;28;19920;-69
2023/04/04 08:17:11;;;;;;;;;;;22.20;32.50;;;;;;5053614;28;19974;-69
2023/04/04 08:19:36;;;;;;;;;;;22.20;32.40;;;;;;5060852;28;19931;-70
2023/04/04 08:22:02;;;;;;;;;;;22.20;32.30;;;;;;5073445;28;19920;-70
2023/04/04 08:24:27;;;;;;;;;;;22.30;32.40;;;;;;5053362;28;19928;-70
2023/04/04 08:26:53;;;;;;;;;;;22.30;32.20;;;;;;5070643;28;19924;-70
2023/04/04 08:29:18;;;;;;;;;;;22.40;32.20;;;;;;5054296;28;19921;-70
2023/04/04 08:31:44;;;;;;;;;;;22.40;32.10;;;;;;5057358;28;20327;-70
2023/04/04 08:34:10;;;;;;;;;;;22.50;31.90;;;;;;5059072;28;19982;-71
2023/04/04 08:36:35;;;;;;;;;;;22.50;31.80;;;;;;5054210;28;20014;-70
2023/04/04 08:39:02;;;;;;;;;;;22.50;31.90;;;;;;5056667;28;19954;-70
2023/04/04 08:41:28;;;;;;;;;;;22.50;31.90;;;;;;5072786;28;19931;-70
2023/04/04 08:43:56;;;;;;;;;;;22.50;31.80;;;;;;5053867;28;19924;-71
2023/04/04 08:46:23;;;;;;;;;;;22.50;31.70;;;;;;5076553;28;19971;-71
2023/04/04 08:48:49;;;;;;;;;;;22.50;31.80;;;;;;5067411;28;19931;-75
2023/04/04 08:51:14;;;;;;;;;;;22.50;31.80;;;;;;5074575;28;20296;-75
2023/04/04 08:53:40;;;;;;;;;;;22.50;31.70;;;;;;5060357;28;19974;-76
2023/04/04 08:56:06;;;;;;;;;;;22.40;32.50;;;;;;5053030;28;19954;-74
2023/04/04 08:58:32;;;;;;;;;;;22.40;31.70;;;;;;5071830;28;20410;-73
2023/04/04 09:00:57;;;;;;;;;;;22.40;31.70;;;;;;5046086;28;19928;-75
2023/04/04 09:03:25;;;;;;;;;;;22.40;31.70;;;;;;5073136;28;19974;-74
2023/04/04 09:05:51;;;;;;;;;;;22.30;31.60;;;;;;5053484;28;19970;-75
2023/04/04 09:08:17;;;;;;;;;;;22.40;31.60;;;;;;5059969;28;20302;-74
2023/04/04 09:10:43;;;;;;;;;;;22.30;31.70;;;;;;5057607;28;19954;-76
2023/04/04 09:13:09;;;;;;;;;;;22.30;31.60;;;;;;5057828;28;20425;-74
2023/04/04 09:15:37;;;;;;;;;;;22.30;31.60;;;;;;5053344;28;20374;-74
2023/04/04 09:18:03;;;;;;;;;;;22.20;31.50;;;;;;5071333;28;19927;-76
2023/04/04 09:20:45;;;;;;;;;;;22.30;31.60;;;;;;5056249;28;20322;-76
2023/04/04 09:23:11;;;;;;;;;;;22.20;31.60;;;;;;5054128;28;20378;-76
2023/04/04 09:25:37;;;;;;;;;;;22.20;31.50;;;;;;5060606;28;20020;-76
2023/04/04 09:28:04;;;;;;;;;;;22.20;31.60;;;;;;5058061;28;20563;-76
2023/04/04 09:30:31;;;;;;;;;;;22.10;31.60;;;;;;5055965;28;19924;-76
2023/04/04 09:32:59;;;;;;;;;;;22.10;31.60;;;;;;5063808;28;20213;-76
2023/04/04 09:35:26;;;;;;;;;;;22.00;31.50;;;;;;5055358;28;20256;-75
2023/04/04 09:37:52;;;;;;;;;;;22.00;31.50;;;;;;5056424;28;19948;-75
2023/04/04 09:40:17;;;;;;;;;;;22.00;31.70;;;;;;5053055;28;20368;-76
2023/04/04 09:42:43;;;;;;;;;;;21.90;31.60;;;;;;5074248;28;19924;-76
2023/04/04 09:45:09;;;;;;;;;;;21.90;31.70;;;;;;5058363;28;19927;-76
2023/04/04 09:47:40;;;;;;;;;;;21.80;32.40;;;;;;5060448;28;19928;-78
2023/04/04 09:50:06;;;;;;;;;;;21.80;31.60;;;;;;5060666;28;20037;-77
2023/04/04 09:52:34;;;;;;;;;;;21.70;31.60;;;;;;5052165;28;19932;-75
2023/04/04 09:55:00;;;;;;;;;;;21.60;31.70;;;;;;5049923;28;19985;-78
2023/04/04 09:57:30;;;;;;;;;;;21.40;32.20;;;;;;5051799;28;19936;-71
2023/04/04 09:59:57;;;;;;;;;;;21.40;32.60;;;;;;5070152;28;19928;-77
2023/04/04 10:02:23;;;;;;;;;;;21.30;32.60;;;;;;5048868;28;19931;-75
2023/04/04 10:04:48;;;;;;;;;;;21.30;32.70;;;;;;5066747;28;20343;-80
2023/04/04 10:07:14;;;;;;;;;;;21.30;32.90;;;;;;5050135;28;19924;-81
2023/04/04 10:09:40;;;;;;;;;;;21.30;32.90;;;;;;5054435;28;20731;-81
2023/04/04 10:12:08;;;;;;;;;;;21.20;32.80;;;;;;5050564;28;20065;-74
2023/04/04 10:14:34;;;;;;;;;;;21.10;33.00;;;;;;5058376;28;20572;-74
2023/04/04 10:17:00;;;;;;;;;;;21.20;33.20;;;;;;5063948;28;19928;-72
2023/04/04 10:19:26;;;;;;;;;;;21.20;33.10;;;;;;5054017;28;20367;-78
2023/04/04 10:21:53;;;;;;;;;;;21.30;33.20;;;;;;5056478;28;20438;-78
2023/04/04 10:24:18;;;;;;;;;;;21.30;33.10;;;;;;5057729;28;20174;-73
2023/04/04 10:26:44;;;;;;;;;;;21.20;33.00;;;;;;5058870;28;20228;-72
2023/04/04 10:29:09;;;;;;;;;;;21.10;33.20;;;;;;5054270;28;20248;-72
2023/04/04 10:31:39;;;;;;;;;;;21.30;33.30;;;;;;5055041;28;19925;-74
2023/04/04 10:36:49;;;;;;;;;;;21.40;32.40;;;;;;5059742;28;20368;-75
2023/04/04 10:39:23;;;;;;;;;;;21.40;32.20;;;;;;5052129;28;19927;-72
2023/04/04 10:41:50;;;;;;;;;;;21.50;32.50;;;;;;5048457;28;19957;-71
2023/04/04 10:44:19;;;;;;;;;;;21.60;32.10;;;;;;5047323;28;20183;-74
2023/04/04 10:46:46;;;;;;;;;;;21.60;31.40;;;;;;5050790;28;20226;-73
2023/04/04 10:49:12;;;;;;;;;;;21.50;31.80;;;;;;5071085;28;19931;-73
2023/04/04 10:51:37;;;;;;;;;;;21.40;32.50;;;;;;5050504;28;20312;-73
2023/04/04 10:54:03;;;;;;;;;;;21.30;31.70;;;;;;5071489;28;20396;-73
2023/04/04 10:56:29;;;;;;;;;;;21.30;32.00;;;;;;5053879;28;19925;-73
2023/04/04 10:59:12;;;;;;;;;;;21.20;32.00;;;;;;5053925;28;19928;-73
2023/04/04 11:01:57;;;;;;;;;;;21.20;32.00;;;;;;5072331;28;19932;-73
2023/04/04 11:04:31;;;;;;;;;;;21.20;32.10;;;;;;5067779;28;19925;-72
2023/04/04 11:07:17;;;;;;;;;;;21.20;32.20;;;;;;5050979;28;20058;-76
2023/04/04 11:09:51;;;;;;;;;;;21.20;32.30;;;;;;5053600;28;19936;-74
2023/04/04 11:12:22;;;;;;;;;;;21.30;32.30;;;;;;5065597;28;20372;-74
2023/04/04 11:14:55;;;;;;;;;;;21.30;32.20;;;;;;5054241;28;19924;-75
2023/04/04 11:17:41;;;;;;;;;;;21.30;32.20;;;;;;5066465;28;20265;-73
2023/04/04 11:20:07;;;;;;;;;;;21.30;32.40;;;;;;5047743;28;19924;-74
2023/04/04 11:22:35;;;;;;;;;;;21.30;32.50;;;;;;5052358;28;19931;-72
2023/04/04 11:25:20;;;;;;;;;;;21.30;33.30;;;;;;5049499;28;19929;-74
2023/04/04 11:27:46;;;;;;;;;;;21.40;32.50;;;;;;5064217;28;19928;-73
2023/04/04 11:30:13;;;;;;;;;;;21.50;32.50;;;;;;5050474;28;20387;-73
2023/04/04 11:32:43;;;;;;;;;;;21.60;32.50;;;;;;5064018;28;19924;-72
2023/04/04 11:35:09;;;;;;;;;;;21.80;32.40;;;;;;5050697;28;20011;-73
2023/04/04 11:37:42;;;;;;;;;;;21.90;32.20;;;;;;5050939;28;20019;-78
2023/04/04 11:40:10;;;;;;;;;;;21.90;32.20;;;;;;5046903;28;20721;-72
2023/04/04 11:42:38;;;;;;;;;;;21.90;32.20;;;;;;5053317;28;19975;-71
2023/04/04 11:45:05;;;;;;;;;;;21.90;32.30;;;;;;5066093;28;20287;-70
2023/04/04 11:47:31;;;;;;;;;;;21.90;32.40;;;;;;5037292;28;20284;-70
2023/04/04 11:49:59;;;;;;;;;;;21.90;32.40;;;;;;5055159;28;19925;-71
2023/04/04 11:52:25;;;;;;;;;;;22.00;32.40;;;;;;5034408;28;20396;-70
2023/04/04 11:54:50;;;;;;;;;;;22.20;32.30;;;;;;5034245;28;20007;-72
2023/04/04 11:57:16;;;;;;;;;;;22.30;32.10;;;;;;5029337;28;20294;-74
2023/04/04 11:59:44;;;;;;;;;;;22.30;32.20;;;;;;5047348;28;20023;-74
2023/04/04 12:02:11;;;;;;;;;;;22.40;32.10;;;;;;5030018;28;20115;-75
2023/04/04 12:04:37;;;;;;;;;;;22.40;31.40;;;;;;5051375;28;20035;-70
2023/04/04 12:07:06;;;;;;;;;;;22.30;31.50;;;;;;5030535;28;20418;-78
2023/04/04 12:09:32;;;;;;;;;;;22.20;31.60;;;;;;5046281;28;19972;-75
2023/04/04 12:11:58;;;;;;;;;;;22.30;31.90;;;;;;5033616;28;19959;-70
2023/04/04 12:14:25;;;;;;;;;;;22.30;32.00;;;;;;5036202;28;19929;-71
2023/04/04 12:16:51;;;;;;;;;;;22.30;32.10;;;;;;5048347;28;19928;-76
2023/04/04 12:19:17;;;;;;;;;;;22.40;32.40;;;;;;5050548;28;20019;-74
2023/04/04 12:21:43;;;;;;;;;;;22.50;32.40;;;;;;5048771;28;19935;-69
2023/04/04 12:24:08;;;;;;;;;;;22.70;32.50;;;;;;5033239;28;19925;-71
2023/04/04 12:26:36;;;;;;;;;;;22.90;32.40;;;;;;5032005;28;19925;-72
2023/04/04 12:29:02;;;;;;;;;;;23.00;32.50;;;;;;5047305;28;19924;-78
2023/04/04 12:31:28;;;;;;;;;;;23.20;32.50;;;;;;5031325;28;19932;-70
2023/04/04 12:33:54;;;;;;;;;;;23.30;32.30;;;;;;5034264;28;19932;-71
2023/04/04 12:36:19;;;;;;;;;;;23.40;32.10;;;;;;5023611;28;20828;-72
2023/04/04 12:39:05;;;;;;;;;;;23.40;31.80;;;;;;5031889;28;19960;-70
2023/04/04 12:41:32;;;;;;;;;;;23.40;31.70;;;;;;5040461;28;20383;-71
2023/04/04 12:43:58;;;;;;;;;;;23.40;31.80;;;;;;5026501;28;19929;-72
2023/04/04 12:46:26;;;;;;;;;;;23.40;31.70;;;;;;5032159;28;20431;-68
2023/04/04 12:48:51;;;;;;;;;;;23.50;31.80;;;;;;5034894;28;20083;-67
2023/04/04 12:51:17;;;;;;;;;;;23.50;31.30;;;;;;5035181;28;20161;-74
2023/04/04 12:53:51;;;;;;;;;;;23.50;31.30;;;;;;5046689;28;19931;-70
2023/04/04 12:56:17;;;;;;;;;;;23.50;31.10;;;;;;5033519;28;19952;-72
2023/04/04 12:58:45;;;;;;;;;;;23.40;31.20;;;;;;5043252;28;19921;-69
2023/04/04 13:01:11;;;;;;;;;;;23.40;31.10;;;;;;5033421;28;19956;-72
2023/04/04 13:03:37;;;;;;;;;;;23.40;31.40;;;;;;5051889;28;19980;-76
2023/04/04 13:06:10;;;;;;;;;;;23.40;31.50;;;;;;5035764;28;19920;-78
2023/04/04 13:08:35;;;;;;;;;;;23.40;31.90;;;;;;5033872;28;20036;-77
2023/04/04 13:11:03;;;;;;;;;;;23.40;31.00;;;;;;5033339;28;20015;-78
2023/04/04 13:13:34;;;;;;;;;;;23.40;31.00;;;;;;5032748;28;19960;-77
2023/04/04 13:15:59;;;;;;;;;;;23.40;30.90;;;;;;5032557;28;19967;-77
2023/04/04 13:18:25;;;;;;;;;;;23.40;30.30;;;;;;5035517;28;20493;-72
2023/04/04 13:20:51;;;;;;;;;;;23.50;29.70;;;;;;5039245;28;20000;-75
2023/04/04 13:23:17;;;;;;;;;;;23.50;29.70;;;;;;5053012;28;20453;-75
2023/04/04 13:25:43;;;;;;;;;;;23.50;28.80;;;;;;5035010;28;20415;-75
2023/04/04 13:28:10;;;;;;;;;;;23.40;28.70;;;;;;5040525;28;20015;-74
2023/04/04 13:30:36;;;;;;;;;;;23.30;29.20;;;;;;5038681;28;20015;-75
2023/04/04 13:33:01;;;;;;;;;;;23.20;29.00;;;;;;5028868;28;20019;-72
2023/04/04 13:35:27;;;;;;;;;;;23.10;29.10;;;;;;5052432;28;19929;-70
2023/04/04 13:37:53;;;;;;;;;;;23.10;29.20;;;;;;5031357;28;19925;-79
2023/04/04 13:40:18;;;;;;;;;;;23.10;29.60;;;;;;5033590;28;20013;-78
2023/04/04 13:42:44;;;;;;;;;;;23.10;29.20;;;;;;5031923;28;20012;-70
2023/04/04 13:45:10;;;;;;;;;;;23.10;28.50;;;;;;5053005;28;20119;-71
2023/04/04 13:47:36;;;;;;;;;;;23.10;29.10;;;;;;5052539;28;19964;-71
2023/04/04 13:50:01;;;;;;;;;;;23.20;29.30;;;;;;5037205;28;20340;-70
2023/04/04 13:52:27;;;;;;;;;;;23.30;29.20;;;;;;5033024;28;19920;-77
2023/04/04 13:54:52;;;;;;;;;;;23.40;29.40;;;;;;5041509;28;20428;-74
2023/04/04 13:57:17;;;;;;;;;;;23.50;29.00;;;;;;5041616;28;19928;-73
2023/04/04 13:59:43;;;;;;;;;;;23.30;28.90;;;;;;5039098;28;19981;-73
2023/04/04 14:02:09;;;;;;;;;;;23.40;29.10;;;;;;5038456;28;19921;-73
2023/04/04 14:04:35;;;;;;;;;;;23.40;29.00;;;;;;5044153;28;20338;-74
2023/04/04 14:07:00;;;;;;;;;;;23.40;28.90;;;;;;5044165;28;19963;-74
2023/04/04 14:09:26;;;;;;;;;;;23.50;29.00;;;;;;5041906;28;19972;-73
2023/04/04 14:11:52;;;;;;;;;;;23.50;29.10;;;;;;5039288;28;19921;-74
2023/04/04 14:14:17;;;;;;;;;;;23.50;29.10;;;;;;5044190;28;19922;-74